Bannock, OH (43972)

11:05 AM EST on February 14, 2016 (GMT -0500)
Morristown, Ohio | | Change Station
CLOSE
Current Station
Personal Weather Station
Location: Belmont, OH
Elevation: 1283 ft
Nearby Weather Stations

Elev 1283 ft 40.08 °N, 81.06 °W | Updated 11 minutes ago

Clear
Clear
15.4 °F
Feels Like 15 °F
N
1.1
Wind Variable Wind from East

Today
High -- | Low -- °F
--% Chance of Precip.
Yesterday
High -- | Low -- °F
Precip. -- in
Pressure 30.54 in
Visibility 10.0 miles
Clouds Clear
Windchill 15 °F
Dew Point 9 °F
Humidity 74%
Rainfall 0.00 in
Snow Depth Not available.
7:18 AM 5:57 PM
Waxing Crescent, 43% visible
METAR KHLG 141553Z 00000KT 10SM CLR M11/M18 A3045 RMK AO2 SLP340 T11061178
Pressure 30.54 in
Visibility 10.0 miles
Clouds Clear
Windchill 15 °F
Dew Point 9 °F
Humidity 74%
Rainfall 0.00 in
Snow Depth Not available.
7:18 AM 5:57 PM
Waxing Crescent, 43% visible
METAR KHLG 141553Z 00000KT 10SM CLR M11/M18 A3045 RMK AO2 SLP340 T11061178

10-Day Weather Forecast

Almanac

Astronomy

Feb. 14, 2016 Rise Set
Actual Time
Civil Twilight
Nautical Twilight
Astronomical Twilight
Moon
Length of Visible Light
Length of Day
Tomorrow will be .
, % of the Moon is Illuminated

Today's Extremes

State Highs State Lows

Community

WunderPhotos

Upload Photos

1,892,819 photos uploaded!

WunderBlog® & News

Nearby

Air Quality

  Air Quality AQ Index Pollutant
Not available.

Snow Depth

Station Depth Elevation

Earthquake Activity

City Distance Mag. Time & Date
Minimum magnitude displayed is 2.5.

Coastal Water Temperatures

Place Temperature

Stations

Nearby Weather Stations

Station Location Temp. Windchill Dew Point Humidity Wind Precip. Elev Updated Type
                   

Watches & Warnings

There are currently no watches in effect.